Berlinville, Ohio
Current Conditions -  °F | °C
As of 1:53 AM on Thursday 27 Nov 2014 (Local Time) from KLPR Reporting Station
Haze Haze  
Wind Chill: 27°   Ceiling: 3300
Heat Index: 32°   Visibility: 5mi
Dew Point: 31°   Wind: 5mph
Humidity: 96%   Direction: 260°W
Pressure: 30.02"   Gusts: NA
Location:  41.3216°N, 82.4633°W
Report Text: KLPR 270653Z AUTO 26004KT 5SM BR OVC033 00/M01 A3002 RMK AO2 SNB06E17 SLP174 P0000 T00001006 TSNO
Loading
Personal Weather Stations






























Interactive Weather Map New forecast layout! Learn more

10-Day Weather Forecast

Advertisements
Track Severe Weather on mobile